createdAt,value
2019-01-12T00:01:01.647Z,21.62
2019-01-12T00:03:29.912Z,21.95
2019-01-12T00:05:58.185Z,21.87
2019-01-12T00:08:26.411Z,21.23
2019-01-12T00:10:54.626Z,21.40
2019-01-12T00:13:22.882Z,21.33
2019-01-12T00:15:51.103Z,21.97
2019-01-12T00:18:19.370Z,22.30
2019-01-12T00:20:47.588Z,22.98
2019-01-12T00:23:15.811Z,22.62
2019-01-12T00:25:44.067Z,21.17
2019-01-12T00:28:12.296Z,22.33
2019-01-12T00:30:40.544Z,21.87
2019-01-12T00:33:08.782Z,20.90
2019-01-12T00:35:37.096Z,20.25
2019-01-12T00:38:05.348Z,20.25
2019-01-12T00:40:33.564Z,20.15
2019-01-12T00:43:01.794Z,20.40
2019-01-12T00:45:30.033Z,21.50
2019-01-12T00:47:58.270Z,21.50
2019-01-12T00:50:26.762Z,22.65
2019-01-12T00:52:55.015Z,22.70
2019-01-12T00:55:23.236Z,21.90
2019-01-12T00:57:51.464Z,22.75
2019-01-12T01:00:20.448Z,22.52
2019-01-12T01:02:49.244Z,22.98
2019-01-12T01:05:17.466Z,21.50
2019-01-12T01:07:45.716Z,22.90
2019-01-12T01:10:16.671Z,21.52
2019-01-12T01:12:44.904Z,21.85
2019-01-12T01:15:13.448Z,22.45
2019-01-12T01:17:41.697Z,21.48
2019-01-12T01:20:12.256Z,21.30
2019-01-12T01:22:40.520Z,22.32
2019-01-12T01:25:09.491Z,23.07
2019-01-12T01:27:37.716Z,21.75
2019-01-12T01:30:09.400Z,21.37
2019-01-12T01:32:37.628Z,22.65
2019-01-12T01:35:06.305Z,22.20
2019-01-12T01:37:35.446Z,23.05
2019-01-12T01:40:05.308Z,21.75
2019-01-12T01:42:33.543Z,22.02
2019-01-12T01:45:01.797Z,21.75
2019-01-12T01:47:30.024Z,21.50
2019-01-12T01:49:58.258Z,22.93
2019-01-12T01:52:26.512Z,22.90
2019-01-12T01:54:54.731Z,23.65
2019-01-12T01:57:22.952Z,23.27
2019-01-12T01:59:51.226Z,23.87
2019-01-12T02:02:19.709Z,22.80
2019-01-12T02:04:47.940Z,21.45
2019-01-12T02:07:16.198Z,22.47
2019-01-12T02:09:44.419Z,22.58
2019-01-12T02:12:12.651Z,23.02
2019-01-12T02:14:40.905Z,23.02
2019-01-12T02:17:09.129Z,24.18
2019-01-12T02:19:37.347Z,22.93
2019-01-12T02:22:05.614Z,23.92
2019-01-12T02:24:33.832Z,24.27
2019-01-12T02:27:02.058Z,23.95
2019-01-12T02:29:30.308Z,25.48
2019-01-12T02:31:58.550Z,25.40
2019-01-12T02:34:26.740Z,24.02
2019-01-12T02:36:54.953Z,23.93
2019-01-12T02:39:23.155Z,25.20
2019-01-12T02:41:51.360Z,26.27
2019-01-12T02:44:19.594Z,26.15
2019-01-12T02:46:47.798Z,28.00
2019-01-12T02:49:16.008Z,26.87
2019-01-12T02:51:44.226Z,26.10
2019-01-12T02:54:12.442Z,26.35
2019-01-12T02:56:40.640Z,26.93
2019-01-12T02:59:08.848Z,24.75
2019-01-12T03:01:37.042Z,26.80
2019-01-12T03:04:05.245Z,26.62
2019-01-12T03:06:33.482Z,25.80
2019-01-12T03:09:01.703Z,25.55
2019-01-12T03:11:29.903Z,26.77
2019-01-12T03:13:58.122Z,25.15
2019-01-12T03:16:26.311Z,23.97
2019-01-12T03:18:54.519Z,25.57
2019-01-12T03:21:22.733Z,26.17
2019-01-12T03:23:50.939Z,25.68
2019-01-12T03:26:19.140Z,25.10
2019-01-12T03:28:47.375Z,25.30
2019-01-12T03:31:15.572Z,26.77
2019-01-12T03:33:43.795Z,25.52
2019-01-12T03:36:11.992Z,26.60
2019-01-12T03:38:40.207Z,26.15
2019-01-12T03:41:09.251Z,25.60
2019-01-12T03:43:37.454Z,25.48
2019-01-12T03:46:05.676Z,24.23
2019-01-12T03:48:33.888Z,25.27
2019-01-12T03:51:02.100Z,25.48
2019-01-12T03:53:30.329Z,26.80
2019-01-12T03:55:58.514Z,27.77
2019-01-12T03:58:26.751Z,26.53
2019-01-12T04:00:55.171Z,26.60
2019-01-12T04:03:23.376Z,26.05
2019-01-12T04:05:51.612Z,27.37
2019-01-12T04:08:19.809Z,25.97
2019-01-12T04:10:48.031Z,26.48
2019-01-12T04:13:16.224Z,27.43
2019-01-12T04:15:44.423Z,24.87
2019-01-12T04:18:12.649Z,27.35
2019-01-12T04:20:40.835Z,26.75
2019-01-12T04:23:09.074Z,25.10
2019-01-12T04:25:37.278Z,25.88
2019-01-12T04:28:05.482Z,25.80
2019-01-12T04:30:33.711Z,25.50
2019-01-12T04:33:01.899Z,24.92
2019-01-12T04:35:30.180Z,25.57
2019-01-12T04:37:58.419Z,25.30
2019-01-12T04:40:26.622Z,25.60
2019-01-12T04:42:54.851Z,26.93
2019-01-12T04:45:23.066Z,27.45
2019-01-12T04:47:51.298Z,28.12
2019-01-12T04:50:19.504Z,27.48
2019-01-12T04:52:47.690Z,28.42
2019-01-12T04:55:15.911Z,27.57
2019-01-12T04:57:44.114Z,28.70
2019-01-12T05:00:14.474Z,27.30
2019-01-12T05:02:42.670Z,26.37
2019-01-12T05:05:10.880Z,26.50
2019-01-12T05:07:39.099Z,25.40
2019-01-12T05:10:09.635Z,25.80
2019-01-12T05:12:37.881Z,24.90
2019-01-12T05:15:08.715Z,24.32
2019-01-12T05:17:36.909Z,23.35
2019-01-12T05:20:08.395Z,22.40
2019-01-12T05:22:36.595Z,22.77
2019-01-12T05:25:05.593Z,23.73
2019-01-12T05:27:33.784Z,24.90
2019-01-12T05:30:01.983Z,23.77
2019-01-12T05:32:30.195Z,24.23
2019-01-12T05:34:58.398Z,24.63
2019-01-12T05:37:26.618Z,23.27
2019-01-12T05:39:54.819Z,24.98
2019-01-12T05:42:23.033Z,26.05
2019-01-12T05:44:51.246Z,24.20
2019-01-12T05:47:19.478Z,22.60
2019-01-12T05:49:47.695Z,22.98
2019-01-12T05:52:15.899Z,23.67
2019-01-12T05:54:44.094Z,22.77
2019-01-12T05:57:12.315Z,24.10
2019-01-12T05:59:40.514Z,23.35
2019-01-12T06:02:08.726Z,24.20
2019-01-12T06:04:36.932Z,23.80
2019-01-12T06:07:05.202Z,22.82
2019-01-12T06:09:33.419Z,24.05
2019-01-12T06:12:01.625Z,23.67
2019-01-12T06:14:29.859Z,24.60
2019-01-12T06:16:58.062Z,23.80
2019-01-12T06:19:26.291Z,24.47
2019-01-12T06:21:54.487Z,25.02
2019-01-12T06:24:22.679Z,23.87
2019-01-12T06:26:50.979Z,23.42
2019-01-12T06:29:19.187Z,24.05
2019-01-12T06:31:47.387Z,24.02
2019-01-12T06:34:15.631Z,23.50
2019-01-12T06:36:43.834Z,24.80
2019-01-12T06:39:12.059Z,25.12
2019-01-12T06:41:40.263Z,26.12
2019-01-12T06:44:08.460Z,24.75
2019-01-12T06:46:37.509Z,26.23
2019-01-12T06:49:05.722Z,25.57
2019-01-12T06:51:33.952Z,25.27
2019-01-12T06:54:02.160Z,25.80
2019-01-12T06:56:30.456Z,26.00
2019-01-12T06:58:58.680Z,26.02
2019-01-12T07:01:26.878Z,27.30
2019-01-12T07:03:55.118Z,26.82
2019-01-12T07:06:23.331Z,28.05
2019-01-12T07:08:51.543Z,28.30
2019-01-12T07:11:19.750Z,25.43
2019-01-12T07:13:47.950Z,27.58
2019-01-12T07:16:16.171Z,27.77
2019-01-12T07:18:44.367Z,28.90
2019-01-12T07:21:12.570Z,29.18
2019-01-12T07:23:40.819Z,28.27
2019-01-12T07:26:09.022Z,27.48
2019-01-12T07:28:37.239Z,28.83
2019-01-12T07:31:05.457Z,29.77
2019-01-12T07:33:33.655Z,29.63
2019-01-12T07:36:01.870Z,27.60
2019-01-12T07:38:30.067Z,28.15
2019-01-12T07:40:58.319Z,28.60
2019-01-12T07:43:26.519Z,27.58
2019-01-12T07:45:54.709Z,27.82
2019-01-12T07:48:22.930Z,27.00
2019-01-12T07:50:51.150Z,27.35
2019-01-12T07:53:19.374Z,26.30
2019-01-12T07:55:47.591Z,27.67
2019-01-12T07:58:15.801Z,27.77
2019-01-12T08:00:44.012Z,28.75
2019-01-12T08:03:12.215Z,28.40
2019-01-12T08:05:40.426Z,26.67
2019-01-12T08:08:08.630Z,27.02
2019-01-12T08:10:36.831Z,25.43
2019-01-12T08:13:05.047Z,25.15
2019-01-12T08:15:33.255Z,26.27
2019-01-12T08:18:01.494Z,24.18
2019-01-12T08:20:29.690Z,24.65
2019-01-12T08:22:57.896Z,24.85
2019-01-12T08:25:26.116Z,26.33
2019-01-12T08:27:54.331Z,25.00
2019-01-12T08:30:22.533Z,25.32
2019-01-12T08:32:50.722Z,25.62
2019-01-12T08:35:18.919Z,24.57
2019-01-12T08:37:47.137Z,23.83
2019-01-12T08:40:15.330Z,24.55
2019-01-12T08:42:43.558Z,24.23
2019-01-12T08:45:11.839Z,24.12
2019-01-12T08:47:40.047Z,23.00
2019-01-12T08:50:13.986Z,23.22
2019-01-12T08:52:42.196Z,22.37
2019-01-12T08:55:11.024Z,22.35
2019-01-12T08:57:39.305Z,22.35
2019-01-12T09:00:10.767Z,23.42
2019-01-12T09:02:39.135Z,23.67
2019-01-12T09:05:07.382Z,23.75
2019-01-12T09:07:35.751Z,23.77
2019-01-12T09:10:06.375Z,23.70
2019-01-12T09:12:34.574Z,22.87
2019-01-12T09:15:02.806Z,22.80
2019-01-12T09:17:31.022Z,22.22
2019-01-12T09:19:59.318Z,23.98
2019-01-12T09:22:27.541Z,22.80
2019-01-12T09:24:55.965Z,21.33
2019-01-12T09:27:24.495Z,22.30
2019-01-12T09:29:54.477Z,22.40
2019-01-12T09:35:27.690Z,22.17
2019-01-12T09:37:55.955Z,21.75
2019-01-12T09:40:24.202Z,22.15
2019-01-12T09:42:52.406Z,21.40
2019-01-12T09:45:20.678Z,20.70
2019-01-12T09:47:48.922Z,20.33
2019-01-12T09:50:18.483Z,20.48
2019-01-12T09:52:47.354Z,20.10
2019-01-12T09:55:15.639Z,21.02
2019-01-12T09:57:43.855Z,21.50
2019-01-12T10:00:20.290Z,20.10
2019-01-12T10:02:48.509Z,20.17
2019-01-12T10:05:16.738Z,20.00
2019-01-12T10:07:44.969Z,20.35
2019-01-12T10:10:15.405Z,19.60
2019-01-12T10:12:44.292Z,19.45
2019-01-12T10:15:12.747Z,19.30
2019-01-12T10:17:40.988Z,19.67
2019-01-12T10:20:16.642Z,19.48
2019-01-12T10:22:44.877Z,18.73
2019-01-12T10:25:13.479Z,19.67
2019-01-12T10:27:41.682Z,19.73
2019-01-12T10:30:15.790Z,19.23
2019-01-12T10:32:44.074Z,18.60
2019-01-12T10:35:12.349Z,20.13
2019-01-12T10:37:40.583Z,19.30
2019-01-12T10:40:13.283Z,18.42
2019-01-12T10:42:42.203Z,18.65
2019-01-12T10:45:12.844Z,17.95
2019-01-12T10:47:41.075Z,18.67
2019-01-12T10:50:19.405Z,17.05
2019-01-12T10:52:49.195Z,17.15
2019-01-12T10:55:17.488Z,17.35
2019-01-12T10:57:45.705Z,17.10
2019-01-12T11:00:20.136Z,16.80
2019-01-12T11:08:26.990Z,15.95
2019-01-12T11:10:55.195Z,16.25
2019-01-12T11:13:24.017Z,15.72
2019-01-12T11:15:52.271Z,15.17
2019-01-12T11:18:21.079Z,15.43
2019-01-12T11:20:51.298Z,15.30
2019-01-12T11:23:20.813Z,14.85
2019-01-12T11:25:49.519Z,14.63
2019-01-12T11:28:17.750Z,14.80
2019-01-12T11:30:48.123Z,14.30
2019-01-12T11:33:16.351Z,14.75
2019-01-12T11:35:44.562Z,14.63
2019-01-12T11:38:13.051Z,15.03
2019-01-12T11:40:41.507Z,14.03
2019-01-12T11:43:09.735Z,13.85
2019-01-12T11:45:37.958Z,14.10
2019-01-12T11:48:06.237Z,13.80
2019-01-12T11:50:34.409Z,13.95
2019-01-12T11:53:02.615Z,13.50
2019-01-12T11:55:30.836Z,13.70
2019-01-12T11:57:59.038Z,13.30
2019-01-12T12:00:28.191Z,12.95
2019-01-12T12:02:56.519Z,13.50
2019-01-12T12:05:24.847Z,12.50
2019-01-12T12:07:53.244Z,13.20
2019-01-12T12:10:21.650Z,12.90
2019-01-12T12:12:49.944Z,12.20
2019-01-12T12:15:19.831Z,12.10
2019-01-12T12:17:48.098Z,12.73
2019-01-12T12:20:28.019Z,12.35
2019-01-12T12:22:56.590Z,12.00
2019-01-12T12:25:25.054Z,11.83
2019-01-12T12:27:53.385Z,12.30
2019-01-12T12:30:24.672Z,12.70
2019-01-12T12:32:55.030Z,12.93
2019-01-12T12:35:23.248Z,12.73
2019-01-12T12:37:52.697Z,12.28
2019-01-12T12:40:21.996Z,12.88
2019-01-12T12:42:50.186Z,12.33
2019-01-12T12:45:21.095Z,11.73
2019-01-12T12:47:49.304Z,12.58
2019-01-12T12:50:17.674Z,11.10
2019-01-12T12:52:45.915Z,11.90
2019-01-12T12:55:16.072Z,11.10
2019-01-12T12:57:44.291Z,10.53
2019-01-12T13:00:15.984Z,10.82
2019-01-12T13:02:44.195Z,11.28
2019-01-12T13:05:12.509Z,11.40
2019-01-12T13:07:40.749Z,11.00
2019-01-12T13:10:17.446Z,11.10
2019-01-12T13:12:45.676Z,11.03
2019-01-12T13:15:13.880Z,10.65
2019-01-12T13:18:01.531Z,9.75
2019-01-12T13:20:29.730Z,10.37
2019-01-12T13:22:57.922Z,9.55
2019-01-12T13:25:26.386Z,9.10
2019-01-12T13:27:54.570Z,9.33
2019-01-12T13:30:24.234Z,9.88
2019-01-12T13:32:52.444Z,9.70
2019-01-12T13:35:20.643Z,10.30
2019-01-12T13:37:48.881Z,10.13
2019-01-12T13:40:22.479Z,10.53
2019-01-12T13:42:50.701Z,10.03
2019-01-12T13:45:19.950Z,9.95
2019-01-12T13:47:48.131Z,9.60
2019-01-12T13:50:18.626Z,9.77
2019-01-12T13:52:46.835Z,9.60
2019-01-12T13:55:15.994Z,10.43
2019-01-12T13:57:47.706Z,10.05
2019-01-12T14:00:25.794Z,10.45
2019-01-12T14:02:53.993Z,10.72
2019-01-12T14:05:22.188Z,11.22
2019-01-12T14:07:56.166Z,11.08
2019-01-12T14:10:20.699Z,11.33
2019-01-12T14:12:48.920Z,12.20
2019-01-12T14:15:18.371Z,12.00
2019-01-12T14:17:46.638Z,12.58
2019-01-12T14:20:29.898Z,12.65
2019-01-12T14:22:58.122Z,12.45
2019-01-12T14:25:27.236Z,12.20
2019-01-12T14:27:55.603Z,12.10
2019-01-12T14:30:23.810Z,12.15
2019-01-12T14:32:52.434Z,11.35
2019-01-12T14:35:20.631Z,11.33
2019-01-12T14:37:48.834Z,11.60
2019-01-12T14:40:19.352Z,11.20
2019-01-12T14:42:47.537Z,11.03
2019-01-12T14:45:24.898Z,9.90
2019-01-12T14:47:53.094Z,10.20
2019-01-12T14:50:21.350Z,10.38
2019-01-12T14:52:49.559Z,9.50
2019-01-12T14:55:19.310Z,9.83
2019-01-12T14:57:47.540Z,9.70
2019-01-12T15:00:18.435Z,9.48
2019-01-12T15:02:47.640Z,9.85
2019-01-12T15:05:20.714Z,9.85
2019-01-12T15:07:48.949Z,9.73
2019-01-12T15:10:18.687Z,9.40
2019-01-12T15:12:47.352Z,9.68
2019-01-12T15:15:17.052Z,9.98
2019-01-12T15:17:45.299Z,10.05
2019-01-12T15:20:18.845Z,9.30
2019-01-12T15:22:47.046Z,9.58
2019-01-12T15:25:15.240Z,9.50
2019-01-12T15:27:43.463Z,9.10
2019-01-12T15:30:16.881Z,9.07
2019-01-12T15:32:45.575Z,9.50
2019-01-12T15:35:14.158Z,8.55
2019-01-12T15:37:43.479Z,9.05
2019-01-12T15:40:14.785Z,8.90
2019-01-12T15:42:43.031Z,8.75
2019-01-12T15:45:14.106Z,8.65
2019-01-12T15:47:42.303Z,8.18
2019-01-12T15:50:22.398Z,8.30
2019-01-12T15:52:50.582Z,8.10
2019-01-12T15:55:18.771Z,7.40
2019-01-12T15:57:47.027Z,7.17
2019-01-12T16:00:26.074Z,7.80
2019-01-12T16:02:54.413Z,7.72
2019-01-12T16:05:22.591Z,7.90
2019-01-12T16:07:50.830Z,8.03
2019-01-12T16:10:19.052Z,7.62
2019-01-12T16:12:48.572Z,8.30
2019-01-12T16:15:19.499Z,8.03
2019-01-12T16:17:47.750Z,8.03
2019-01-12T16:20:21.774Z,8.33
2019-01-12T16:22:49.972Z,8.40
2019-01-12T16:25:18.220Z,8.33
2019-01-12T16:27:46.420Z,8.55
2019-01-12T16:30:17.467Z,8.50
2019-01-12T16:32:45.843Z,8.38
2019-01-12T16:35:14.036Z,8.88
2019-01-12T16:37:42.500Z,9.00
2019-01-12T16:40:25.399Z,8.80
2019-01-12T16:42:53.589Z,8.83
2019-01-12T16:45:21.806Z,9.77
2019-01-12T16:47:50.033Z,9.50
2019-01-12T16:50:18.258Z,9.50
2019-01-12T16:52:46.462Z,9.90
2019-01-12T16:55:15.927Z,10.08
2019-01-12T16:57:44.131Z,10.30
2019-01-12T17:00:24.120Z,10.90
2019-01-12T17:02:52.319Z,10.28
2019-01-12T17:05:20.523Z,10.70
2019-01-12T17:07:48.746Z,11.22
2019-01-12T17:10:21.502Z,11.18
2019-01-12T17:12:49.697Z,10.98
2019-01-12T17:15:19.674Z,11.15
2019-01-12T17:17:47.875Z,11.30
2019-01-12T17:20:21.654Z,11.43
2019-01-12T17:22:50.943Z,11.48
2019-01-12T17:25:19.143Z,10.95
2019-01-12T17:27:47.340Z,10.60
2019-01-12T17:30:17.810Z,11.12
2019-01-12T17:32:46.001Z,11.05
2019-01-12T17:35:14.344Z,10.45
2019-01-12T17:37:42.894Z,10.72
2019-01-12T17:40:13.484Z,11.53
2019-01-12T17:42:41.713Z,11.33
2019-01-12T17:45:18.050Z,11.00
2019-01-12T17:47:46.256Z,11.00
2019-01-12T17:50:22.709Z,11.57
2019-01-12T17:52:50.898Z,11.33
2019-01-12T17:55:21.463Z,11.18
2019-01-12T17:57:49.785Z,10.63
2019-01-12T18:00:27.052Z,11.45
2019-01-12T18:02:55.263Z,11.12
2019-01-12T18:05:23.486Z,11.63
2019-01-12T18:07:51.694Z,12.07
2019-01-12T18:10:19.929Z,11.18
2019-01-12T18:12:48.199Z,11.35
2019-01-12T18:15:16.667Z,12.33
2019-01-12T18:17:44.879Z,12.25
2019-01-12T18:20:17.124Z,11.55
2019-01-12T18:22:45.358Z,11.65
2019-01-12T18:25:13.621Z,11.60
2019-01-12T18:27:41.822Z,12.85
2019-01-12T18:30:38.457Z,11.90
2019-01-12T18:33:06.651Z,12.40
2019-01-12T18:35:34.881Z,11.97
2019-01-12T18:38:03.103Z,12.47
2019-01-12T18:40:31.294Z,13.08
2019-01-12T18:42:59.510Z,13.25
2019-01-12T18:45:27.711Z,13.58
2019-01-12T18:47:55.910Z,13.60
2019-01-12T18:50:45.178Z,13.30
2019-01-12T18:53:13.379Z,14.80
2019-01-12T18:55:41.602Z,15.80
2019-01-12T18:58:09.805Z,15.35
2019-01-12T19:00:38.001Z,15.08
2019-01-12T19:03:06.226Z,14.45
2019-01-12T19:05:34.515Z,15.00
2019-01-12T19:08:02.729Z,15.83
2019-01-12T19:10:51.166Z,15.87
2019-01-12T19:13:10.498Z,17.20
2019-01-12T19:15:41.805Z,16.82
2019-01-12T19:18:10.022Z,16.17
2019-01-12T19:20:38.263Z,18.17
2019-01-12T19:23:06.468Z,16.30
2019-01-12T19:25:36.318Z,16.13
2019-01-12T19:28:04.556Z,16.87
2019-01-12T19:30:32.767Z,17.62
2019-01-12T19:33:02.663Z,17.67
2019-01-12T19:35:30.917Z,17.55
2019-01-12T19:37:59.118Z,15.90
2019-01-12T19:40:28.994Z,17.43
2019-01-12T19:43:00.033Z,16.15
2019-01-12T19:45:28.264Z,16.27
2019-01-12T19:47:56.523Z,14.95
2019-01-12T19:50:26.384Z,14.07
2019-01-12T19:52:54.588Z,14.50
2019-01-12T19:55:22.798Z,14.07
2019-01-12T19:57:51.279Z,13.65
2019-01-12T20:00:25.569Z,14.18
2019-01-12T20:02:53.795Z,13.10
2019-01-12T20:05:22.043Z,12.30
2019-01-12T20:07:50.251Z,12.37
2019-01-12T20:10:19.338Z,13.30
2019-01-12T20:12:47.570Z,13.30
2019-01-12T20:15:18.426Z,13.05
2019-01-12T20:17:46.633Z,13.08
2019-01-12T20:20:17.110Z,12.80
2019-01-12T20:22:45.340Z,12.40
2019-01-12T20:25:19.573Z,11.73
2019-01-12T20:27:49.431Z,12.43
2019-01-12T20:30:38.726Z,12.85
2019-01-12T20:33:26.615Z,12.10
2019-01-12T20:36:15.991Z,11.63
2019-01-12T20:39:08.759Z,11.10
2019-01-12T20:41:46.223Z,11.60
2019-01-12T20:44:23.302Z,11.25
2019-01-12T20:46:59.859Z,10.20
2019-01-12T20:49:31.347Z,10.82
2019-01-12T20:52:02.892Z,9.95
2019-01-12T20:54:39.577Z,9.13
2019-01-12T20:57:19.735Z,9.28
2019-01-12T21:00:15.458Z,10.50
2019-01-12T21:03:01.581Z,10.40
2019-01-12T21:05:35.811Z,10.15
2019-01-12T21:08:07.401Z,10.68
2019-01-12T21:10:58.235Z,9.58
2019-01-12T21:13:49.163Z,10.32
2019-01-12T21:16:20.737Z,10.45
2019-01-12T21:18:49.380Z,9.65
2019-01-12T21:21:17.570Z,10.05
2019-01-12T21:23:45.797Z,9.73
2019-01-12T21:26:14.005Z,9.00
2019-01-12T21:28:42.242Z,9.38
2019-01-12T21:31:10.500Z,9.70
2019-01-12T21:33:38.750Z,9.90
2019-01-12T21:36:06.958Z,10.13
2019-01-12T21:38:35.221Z,9.45
2019-01-12T21:41:06.455Z,10.08
2019-01-12T21:43:34.646Z,9.93
2019-01-12T21:46:02.886Z,9.53
2019-01-12T21:48:31.099Z,9.40
2019-01-12T21:51:02.035Z,9.85
2019-01-12T21:53:30.320Z,10.55
2019-01-12T21:56:01.282Z,10.75
2019-01-12T21:58:29.719Z,10.03
2019-01-12T22:00:59.100Z,9.93
2019-01-12T22:03:28.958Z,9.10
2019-01-12T22:05:57.171Z,9.33
2019-01-12T22:08:25.383Z,8.53
2019-01-12T22:10:54.026Z,7.60
2019-01-12T22:13:22.315Z,8.23
2019-01-12T22:15:50.500Z,7.92
2019-01-12T22:18:18.850Z,7.70
2019-01-12T22:20:47.083Z,7.60
2019-01-12T22:23:15.310Z,7.72
2019-01-12T22:25:43.514Z,7.50
2019-01-12T22:28:11.755Z,7.33
2019-01-12T22:30:40.006Z,7.58
2019-01-12T22:33:08.201Z,6.80
2019-01-12T22:35:36.407Z,6.63
2019-01-12T22:38:04.622Z,6.47
2019-01-12T22:40:32.838Z,6.30
2019-01-12T22:43:01.038Z,6.03
2019-01-12T22:45:29.250Z,6.03
2019-01-12T22:47:57.539Z,5.90
2019-01-12T22:50:25.744Z,6.15
2019-01-12T22:52:53.938Z,6.28
2019-01-12T22:55:22.180Z,6.40
2019-01-12T22:57:50.437Z,5.70
2019-01-12T23:00:46.456Z,5.60
2019-01-12T23:03:14.676Z,5.00
2019-01-12T23:05:42.882Z,5.30
2019-01-12T23:08:11.106Z,5.90
2019-01-12T23:10:39.330Z,5.55
2019-01-12T23:13:07.811Z,5.92
2019-01-12T23:15:36.047Z,5.45
2019-01-12T23:18:04.544Z,5.67
2019-01-12T23:20:32.759Z,6.17
2019-01-12T23:23:00.980Z,5.30
2019-01-12T23:25:29.183Z,5.17
2019-01-12T23:27:57.415Z,5.28
2019-01-12T23:30:25.746Z,5.20
2019-01-12T23:32:53.968Z,5.47
2019-01-12T23:35:22.266Z,5.00
2019-01-12T23:37:50.500Z,4.45
2019-01-12T23:40:18.815Z,4.20
2019-01-12T23:42:47.028Z,4.60
2019-01-12T23:45:15.703Z,4.50
2019-01-12T23:47:44.067Z,4.00
2019-01-12T23:50:13.571Z,4.08
2019-01-12T23:52:41.886Z,3.77
2019-01-12T23:55:10.082Z,3.80
2019-01-12T23:57:38.363Z,3.72
